Time;durP1;ratioP1;P1;durP2;ratioP2;P2;SDS_P1;SDS_P2;PMS_P1;PMS_P2;Temp;Humidity;BMP_temperature;BMP_pressure;BME280_temperature;BME280_humidity;BME280_pressure;Samples;Min_cycle;Max_cycle;Signal;HPM_P1;HPM_P2
2022/12/18 00:03:40;;;;;;;5.90;3.30;;;;;;;10.90;68.70;101549.47;5013353;28;20060;-89
2022/12/18 00:38:36;;;;;;;5.80;3.22;;;;;;;10.95;67.41;101609.06;4443743;23;20069;-89
2022/12/18 00:41:06;;;;;;;4.40;2.65;;;;;;;10.76;67.23;101575.78;5037936;28;20060;-89
2022/12/18 01:02:28;;;;;;;7.50;3.03;;;;;;;10.35;67.68;101566.94;5020464;28;20058;-91
2022/12/18 01:07:53;;;;;;;5.43;2.85;;;;;;;10.58;67.83;101623.16;5073624;23;20072;-90
2022/12/18 01:10:24;;;;;;;5.57;3.28;;;;;;;10.26;68.33;101583.84;4995649;28;20053;-91
2022/12/18 01:13:48;;;;;;;6.80;3.20;;;;;;;10.22;68.46;101586.94;5014924;28;20034;-91
2022/12/18 01:17:04;;;;;;;4.72;3.00;;;;;;;10.23;68.32;101577.88;5027123;28;20044;-90
2022/12/18 01:20:14;;;;;;;4.68;3.00;;;;;;;10.30;68.28;101606.81;5037895;28;20041;-91
2022/12/18 01:23:08;;;;;;;4.53;3.05;;;;;;;10.44;68.53;101637.88;5042778;28;20065;-91
2022/12/18 01:25:40;;;;;;;4.43;3.00;;;;;;;10.40;68.32;101635.59;5033654;28;20058;-88
2022/12/18 01:28:51;;;;;;;4.82;3.08;;;;;;;10.47;68.33;101655.56;5016052;28;20077;-92
2022/12/18 01:32:11;;;;;;;5.07;2.88;;;;;;;10.29;68.29;101594.34;5027611;28;20042;-91
2022/12/18 01:35:04;;;;;;;5.50;3.22;;;;;;;10.22;68.24;101577.03;5045013;28;20061;-90
2022/12/18 01:38:22;;;;;;;4.93;3.10;;;;;;;10.35;67.85;101598.34;5021750;28;20045;-90
2022/12/18 01:42:01;;;;;;;5.38;3.15;;;;;;;10.61;67.78;101640.88;5015011;28;20045;-90
2022/12/18 01:45:00;;;;;;;5.45;3.20;;;;;;;10.65;67.50;101637.78;5032139;28;20045;-92
2022/12/18 01:48:14;;;;;;;5.05;3.08;;;;;;;10.43;67.45;101621.84;5011209;28;20034;-91
2022/12/18 01:50:56;;;;;;;4.43;2.97;;;;;;;10.58;67.41;101647.34;5030081;28;20069;-88
2022/12/18 01:54:11;;;;;;;6.03;2.88;;;;;;;10.41;67.31;101621.13;5015085;28;20053;-90
2022/12/18 01:59:21;;;;;;;9.43;3.30;;;;;;;10.78;67.21;101670.63;5179398;22;20038;-88
2022/12/18 02:20:33;;;;;;;5.95;2.90;;;;;;;10.27;66.50;101655.41;4796761;26;20092;-91
2022/12/18 02:23:30;;;;;;;5.28;2.88;;;;;;;10.40;67.01;101675.91;5016658;28;20025;-90
2022/12/18 02:27:07;;;;;;;4.75;2.85;;;;;;;10.34;66.98;101669.22;5020981;28;20022;-89
2022/12/18 02:30:01;;;;;;;7.85;3.08;;;;;;;10.34;67.22;101672.75;4937452;29;20048;-88
2022/12/18 02:32:35;;;;;;;4.55;2.90;;;;;;;10.26;66.74;101674.41;5028577;28;20225;-89
2022/12/18 02:35:43;;;;;;;6.97;3.20;;;;;;;10.14;66.63;101644.06;5032184;28;20101;-89
2022/12/18 02:43:26;;;;;;;5.43;3.05;;;;;;;10.02;67.07;101661.22;4595215;23;20054;-88
2022/12/18 02:46:33;;;;;;;4.43;2.75;;;;;;;10.00;67.30;101685.56;5176463;22;20053;-90
2022/12/18 02:49:24;;;;;;;5.10;3.10;;;;;;;10.21;67.36;101731.22;5056611;23;20054;-88
2022/12/18 02:59:57;;;;;;;5.22;3.03;;;;;;;9.79;68.50;101719.63;2924595;26;20037;-88
2022/12/18 03:02:47;;;;;;;4.75;3.08;;;;;;;9.72;68.43;101703.19;4990384;28;20053;-88
2022/12/18 03:34:26;;;;;;;5.25;3.50;;;;;;;9.36;69.95;101713.31;4996277;23;20068;-90
2022/12/18 03:37:22;;;;;;;5.35;3.50;;;;;;;9.43;70.31;101730.63;5017762;28;20122;-89
2022/12/18 03:39:51;;;;;;;5.43;3.40;;;;;;;9.48;70.70;101728.44;5028016;28;20065;-89
2022/12/18 03:42:38;;;;;;;8.07;3.47;;;;;;;9.55;70.42;101749.38;4982930;28;20038;-90
2022/12/18 03:45:59;;;;;;;5.30;3.10;;;;;;;9.51;70.29;101748.81;5015389;28;20065;-88
2022/12/18 03:49:04;;;;;;;4.95;3.15;;;;;;;9.45;70.30;101728.66;5029394;28;20098;-88
2022/12/18 03:51:59;;;;;;;4.47;2.70;;;;;;;9.65;69.63;101759.25;5024383;28;20073;-88
2022/12/18 03:54:53;;;;;;;5.15;3.28;;;;;;;9.37;69.54;101720.41;5013244;28;20065;-86
2022/12/18 03:57:33;;;;;;;4.28;2.92;;;;;;;9.47;68.77;101718.66;5013994;28;20073;-89
2022/12/18 04:00:17;;;;;;;6.57;2.92;;;;;;;9.45;67.35;101747.47;5012705;28;20085;-88
2022/12/18 04:02:49;;;;;;;5.47;2.50;;;;;;;9.61;66.12;101760.47;5029820;28;20551;-88
2022/12/18 04:05:46;;;;;;;;;;;;;;;9.87;65.33;101803.09;5007311;28;20038;-87
2022/12/18 04:08:35;;;;;;;5.15;2.80;;;;;;;9.47;65.01;101766.97;5010159;28;19961;-88
2022/12/18 04:11:26;;;;;;;4.18;2.80;;;;;;;9.61;64.67;101808.78;5033282;28;20046;-87
2022/12/18 04:14:35;;;;;;;4.68;2.90;;;;;;;9.73;63.89;101806.94;5024537;28;20056;-87
2022/12/18 04:17:12;;;;;;;5.35;2.78;;;;;;;9.78;64.24;101834.25;5013179;28;20066;-88
2022/12/18 04:20:31;;;;;;;4.72;3.00;;;;;;;9.66;64.09;101827.22;4998185;28;20057;-86
2022/12/18 04:23:23;;;;;;;6.30;3.17;;;;;;;9.57;63.93;101822.59;5025109;28;20053;-88
2022/12/18 04:26:20;;;;;;;7.25;3.40;;;;;;;9.50;64.13;101809.69;4990584;28;20046;-86
2022/12/18 04:28:49;;;;;;;5.82;3.63;;;;;;;9.56;64.20;101847.75;5021256;28;20041;-88
2022/12/18 04:31:15;;;;;;;5.88;3.30;;;;;;;9.76;63.85;101870.28;5015035;28;20095;-88
2022/12/18 04:34:07;;;;;;;6.20;3.75;;;;;;;9.44;63.67;101847.78;5008384;28;20077;-88
2022/12/18 04:36:39;;;;;;;6.15;3.80;;;;;;;9.45;63.69;101889.72;4992984;28;20127;-89
2022/12/18 04:39:37;;;;;;;8.02;4.53;;;;;;;9.36;63.80;101879.72;5014010;28;20042;-91
2022/12/18 04:42:50;;;;;;;7.88;4.40;;;;;;;9.32;63.52;101867.56;5034179;28;20049;-88
2022/12/18 04:45:21;;;;;;;9.32;4.32;;;;;;;8.97;63.42;101868.53;4998378;28;20046;-90
2022/12/18 04:48:56;;;;;;;8.60;4.80;;;;;;;9.07;63.04;101912.44;5118457;23;20068;-90
2022/12/18 04:52:06;;;;;;;9.45;5.50;;;;;;;8.96;63.18;101925.81;5026383;28;20152;-90
2022/12/18 04:54:45;;;;;;;9.23;5.68;;;;;;;8.80;62.94;101910.09;5014742;28;20066;-89
2022/12/18 04:57:41;;;;;;;9.82;5.60;;;;;;;8.76;63.41;101913.13;5015133;28;20054;-86
2022/12/18 05:00:24;;;;;;;9.63;5.60;;;;;;;8.60;63.21;101882.13;5022968;28;20043;-88
2022/12/18 05:03:02;;;;;;;9.77;5.63;;;;;;;8.83;62.94;101917.03;5007112;28;20102;-88
2022/12/18 05:05:38;;;;;;;9.38;5.80;;;;;;;8.96;62.49;101947.28;4967612;28;20099;-88
2022/12/18 05:09:04;;;;;;;11.25;6.10;;;;;;;8.75;61.93;101930.16;4997307;28;20055;-88
2022/12/18 05:11:55;;;;;;;9.10;5.53;;;;;;;8.48;62.49;101919.75;5007919;28;20106;-88
2022/12/18 05:14:49;;;;;;;9.88;5.53;;;;;;;8.63;62.61;101924.78;5015690;28;20042;-89
2022/12/18 05:17:34;;;;;;;9.32;5.60;;;;;;;8.60;62.76;101932.22;5014018;28;20046;-88
2022/12/18 05:20:28;;;;;;;11.15;5.85;;;;;;;8.36;63.97;101946.47;4982259;28;20053;-86
2022/12/18 05:23:20;;;;;;;10.77;5.80;;;;;;;8.47;64.10;101967.13;5002641;28;20203;-86
2022/12/18 05:26:11;;;;;;;9.87;5.80;;;;;;;8.47;64.12;101964.44;5015206;28;20044;-88
2022/12/18 05:28:39;;;;;;;11.93;6.80;;;;;;;8.54;63.29;102005.88;5000127;28;20412;-87
2022/12/18 05:31:30;;;;;;;12.10;6.53;;;;;;;8.21;63.49;101969.88;5014475;28;20118;-87
2022/12/18 05:34:21;;;;;;;13.27;6.72;;;;;;;8.17;63.77;101992.53;4998105;28;20113;-88
2022/12/18 05:37:15;;;;;;;13.75;6.90;;;;;;;8.03;63.76;101974.78;4969331;28;20058;-90
2022/12/18 05:39:43;;;;;;;13.80;7.70;;;;;;;8.01;63.92;101981.22;4991540;28;20042;-88
2022/12/18 05:42:30;;;;;;;14.27;7.80;;;;;;;7.85;64.16;101986.84;4976888;28;20047;-87
2022/12/18 05:44:57;;;;;;;14.55;7.38;;;;;;;8.07;64.02;102018.25;4988653;28;20117;-90
2022/12/18 05:48:02;;;;;;;13.45;7.85;;;;;;;7.99;63.75;102010.78;4974700;28;20050;-90
2022/12/18 05:53:32;;;;;;;14.63;8.15;;;;;;;7.60;63.29;102033.22;5044392;28;20050;-90
2022/12/18 05:56:18;;;;;;;15.85;7.88;;;;;;;7.63;62.88;102027.66;5017268;28;20038;-91
2022/12/18 05:59:13;;;;;;;14.25;8.63;;;;;;;7.78;62.86;102066.75;4986235;28;20038;-88
2022/12/18 06:01:59;;;;;;;15.43;8.85;;;;;;;7.41;62.48;102025.63;5038510;28;20097;-89
2022/12/18 06:07:25;;;;;;;19.27;9.57;;;;;;;7.40;63.28;102069.44;5031300;28;20056;-90
2022/12/18 06:10:15;;;;;;;17.42;9.50;;;;;;;7.28;62.99;102059.53;5059309;22;20116;-90
2022/12/18 06:13:26;;;;;;;18.83;9.80;;;;;;;7.39;62.86;102089.94;5034634;28;20034;-90
2022/12/18 06:26:47;;;;;;;18.50;10.00;;;;;;;7.58;62.67;102166.31;5030245;28;20050;-90
2022/12/18 06:29:49;;;;;;;20.23;10.70;;;;;;;7.85;62.23;102184.13;5028248;28;20052;-89
2022/12/18 06:32:46;;;;;;;21.73;10.32;;;;;;;7.68;62.64;102162.06;4991180;28;20530;-90
2022/12/18 06:36:09;;;;;;;19.58;10.10;;;;;;;7.66;62.50;102165.81;5011711;28;20078;-89
2022/12/18 06:38:57;;;;;;;21.13;9.98;;;;;;;7.52;62.89;102164.06;4931145;29;20404;-89
2022/12/18 06:42:24;;;;;;;19.75;10.60;;;;;;;7.63;63.13;102190.94;4951998;29;20066;-89
2022/12/18 06:45:02;;;;;;;20.63;11.00;;;;;;;7.38;63.27;102175.69;4936460;29;20526;-90
2022/12/18 06:55:20;;;;;;;28.27;12.60;;;;;;;7.33;64.33;102201.91;3290282;26;20050;-89
2022/12/18 07:01:14;;;;;;;23.30;12.63;;;;;;;7.38;63.82;102210.50;4607258;23;20053;-87
2022/12/18 07:06:41;;;;;;;23.50;12.53;;;;;;;7.75;63.25;102248.13;5152183;23;20025;-88
2022/12/18 07:09:30;;;;;;;24.20;12.88;;;;;;;7.28;63.93;102228.97;5021322;28;20296;-89
2022/12/18 07:12:15;;;;;;;23.67;12.68;;;;;;;7.00;64.50;102210.31;5003603;28;20050;-87
2022/12/18 07:25:35;;;;;;;24.80;13.30;;;;;;;6.78;65.99;102278.53;3493953;22;20056;-92
2022/12/18 07:34:16;;;;;;;28.17;14.07;;;;;;;6.75;65.62;102260.03;4690298;23;20062;-89
2022/12/18 07:37:23;;;;;;;;;;;;;;;7.10;65.54;102289.03;4980002;28;20135;-88
2022/12/18 07:39:55;;;;;;;26.67;13.25;;;;;;;6.78;66.03;102267.84;5007471;28;19928;-87
2022/12/18 07:42:53;;;;;;;27.77;13.48;;;;;;;6.77;65.81;102274.16;5358007;23;20058;-88
2022/12/18 07:46:01;;;;;;;25.50;13.05;;;;;;;6.51;66.60;102259.78;4975160;28;20054;-89
2022/12/18 07:53:45;;;;;;;26.50;14.07;;;;;;;6.92;66.04;102278.53;4721811;23;20299;-88
2022/12/18 07:56:37;;;;;;;26.48;14.00;;;;;;;7.11;66.21;102291.56;5018909;28;20088;-88
2022/12/18 07:59:05;;;;;;;30.63;14.35;;;;;;;7.11;65.10;102264.81;5012777;28;20053;-86
2022/12/18 08:01:38;;;;;;;27.67;13.77;;;;;;;7.17;64.96;102271.63;5008031;28;20069;-87
2022/12/18 08:04:07;;;;;;;27.58;14.05;;;;;;;7.66;64.07;102323.75;4996871;28;20046;-86
2022/12/18 08:06:35;;;;;;;26.42;14.55;;;;;;;7.57;63.83;102298.44;5006488;28;20092;-86
2022/12/18 08:09:08;;;;;;;28.58;14.10;;;;;;;7.44;63.81;102284.13;5026388;28;20042;-88
2022/12/18 08:12:00;;;;;;;27.52;14.45;;;;;;;7.49;63.53;102290.91;4958321;28;20039;-88
2022/12/18 08:27:17;;;;;;;27.63;15.23;;;;;;;7.28;64.39;102303.00;5029047;28;20414;-88
2022/12/18 08:30:49;;;;;;;30.25;15.13;;;;;;;7.33;64.33;102299.09;5015897;28;20081;-88
2022/12/18 08:33:18;;;;;;;27.77;14.80;;;;;;;7.40;65.17;102304.91;5034226;28;20038;-84
2022/12/18 08:36:11;;;;;;;30.95;14.82;;;;;;;7.37;63.79;102300.63;5010440;28;20076;-86
2022/12/18 08:38:39;;;;;;;28.50;14.18;;;;;;;7.42;64.04;102297.59;5021946;28;20490;-88
2022/12/18 08:41:10;;;;;;;31.20;15.27;;;;;;;7.32;64.76;102325.94;5002700;28;20042;-87
2022/12/18 08:46:25;;;;;;;28.52;14.63;;;;;;;7.27;64.80;102328.06;5025184;28;20049;-87
2022/12/18 08:48:55;;;;;;;28.38;15.02;;;;;;;6.92;65.56;102301.72;5004517;28;20117;-86
2022/12/18 08:51:24;;;;;;;32.55;15.00;;;;;;;7.00;65.56;102304.78;5005521;28;20050;-87
2022/12/18 08:53:55;;;;;;;33.60;15.77;;;;;;;7.16;65.15;102321.59;5011192;28;20049;-88
2022/12/18 08:56:28;;;;;;;30.02;15.65;;;;;;;6.90;65.72;102304.50;5017823;28;20042;-87
2022/12/18 08:59:07;;;;;;;31.48;15.43;;;;;;;6.83;68.04;102299.63;5024384;28;20052;-93
2022/12/18 09:01:37;;;;;;;28.90;15.40;;;;;;;6.95;66.17;102294.38;5014318;28;20153;-86
2022/12/18 09:04:11;;;;;;;28.10;15.50;;;;;;;7.21;65.44;102301.69;4995880;28;20050;-88
2022/12/18 09:06:47;;;;;;;31.52;15.45;;;;;;;7.12;64.97;102287.97;5013294;28;20085;-87
2022/12/18 09:09:38;;;;;;;30.88;15.13;;;;;;;7.21;65.35;102320.41;4988101;28;20046;-88
2022/12/18 09:39:29;;;;;;;27.55;13.98;;;;;;;7.57;64.96;102301.13;2902892;23;20137;-87
2022/12/18 09:42:36;;;;;;;30.58;14.77;;;;;;;7.68;64.52;102295.03;5014588;28;20053;-89
2022/12/18 09:45:36;;;;;;;29.77;14.45;;;;;;;7.52;64.99;102290.72;5013804;28;20073;-88
2022/12/18 09:48:46;;;;;;;26.67;14.38;;;;;;;7.72;64.59;102285.84;5008994;28;20041;-88
2022/12/18 10:23:06;;;;;;;31.90;15.57;;;;;;;8.06;63.50;102310.34;4739450;26;20063;-94
2022/12/18 10:26:07;;;;;;;32.40;16.33;;;;;;;8.27;62.64;102308.03;4977799;28;20317;-89
2022/12/18 10:29:15;;;;;;;30.05;15.38;;;;;;;8.20;62.48;102275.44;5026164;28;20028;-93
2022/12/18 15:46:26;;;;;;;18.80;8.87;;;;;;;6.79;57.71;102667.03;5242152;23;20073;-85
2022/12/18 15:48:55;;;;;;;18.50;9.93;;;;;;;6.96;57.85;102688.34;4995175;28;20042;-89
2022/12/18 15:57:22;;;;;;;19.27;9.45;;;;;;;6.73;58.22;102658.41;4983312;28;20122;-87
2022/12/18 16:00:28;;;;;;;17.60;8.90;;;;;;;6.46;58.18;102668.88;5003733;28;20097;-89
2022/12/18 16:03:03;;;;;;;18.27;9.13;;;;;;;6.62;58.13;102670.66;4987023;28;20137;-87
2022/12/18 16:06:52;;;;;;;15.95;8.93;;;;;;;6.70;57.85;102676.47;4994289;28;20073;-86
2022/12/18 16:09:42;;;;;;;16.33;8.68;;;;;;;6.73;58.90;102697.66;5002496;28;20042;-88
2022/12/18 16:12:30;;;;;;;16.67;9.52;;;;;;;6.52;58.69;102670.31;5014129;28;20038;-88
2022/12/18 16:14:57;;;;;;;17.63;8.75;;;;;;;6.58;58.34;102658.41;4977779;28;20054;-86
2022/12/18 16:18:02;;;;;;;17.40;8.95;;;;;;;6.71;58.95;102704.91;4995014;28;20035;-87
2022/12/18 16:21:18;;;;;;;15.57;8.50;;;;;;;6.57;59.20;102712.84;4981911;28;20053;-86
2022/12/18 16:23:52;;;;;;;18.83;8.60;;;;;;;6.42;59.37;102694.03;4992369;28;20054;-89
2022/12/18 16:26:51;;;;;;;17.30;8.25;;;;;;;6.39;60.05;102704.91;4993531;28;20046;-88
2022/12/18 16:29:19;;;;;;;18.80;9.82;;;;;;;6.52;59.93;102700.56;4975084;28;20054;-88
2022/12/18 16:32:11;;;;;;;17.88;9.52;;;;;;;6.55;59.58;102704.88;4988042;28;20042;-87
2022/12/18 16:34:51;;;;;;;15.60;8.50;;;;;;;6.70;58.61;102708.53;4983528;28;20057;-87
2022/12/18 16:37:40;;;;;;;17.13;9.02;;;;;;;6.50;59.55;102696.28;4987348;28;20130;-84
2022/12/18 16:40:16;;;;;;;16.60;9.18;;;;;;;6.49;59.90;102715.94;5003319;28;20054;-90
2022/12/18 16:43:02;;;;;;;20.60;9.20;;;;;;;6.39;60.08;102709.34;4993429;28;20108;-87
2022/12/18 16:46:08;;;;;;;15.73;8.65;;;;;;;6.25;59.74;102704.75;5014402;28;20038;-89
2022/12/18 16:48:55;;;;;;;25.05;11.93;;;;;;;6.26;60.53;102704.69;4981882;28;20058;-89
2022/12/18 16:51:26;;;;;;;17.17;8.80;;;;;;;6.47;59.18;102729.38;5000124;28;20046;-88
2022/12/18 16:53:58;;;;;;;18.25;8.75;;;;;;;6.28;58.04;102696.59;5016686;28;20114;-88
2022/12/18 16:56:37;;;;;;;17.77;8.43;;;;;;;6.18;57.63;102700.69;5010240;28;20018;-88
2022/12/18 16:59:29;;;;;;;17.15;9.10;;;;;;;6.23;58.92;102722.69;5017616;28;20062;-88
2022/12/18 17:02:42;;;;;;;16.30;8.60;;;;;;;6.22;58.69;102736.97;5006349;28;20030;-87
2022/12/18 17:06:06;;;;;;;15.38;8.02;;;;;;;6.35;57.48;102762.09;5025546;28;20049;-88
2022/12/18 17:09:08;;;;;;;15.00;8.45;;;;;;;6.21;56.78;102752.16;5007547;28;20490;-88
2022/12/18 17:11:59;;;;;;;16.92;7.95;;;;;;;6.18;55.79;102736.28;5013392;28;20057;-89
2022/12/18 17:14:50;;;;;;;14.90;7.22;;;;;;;6.12;55.94;102747.28;5022525;28;20068;-89
2022/12/18 17:17:23;;;;;;;15.45;7.78;;;;;;;5.95;56.08;102729.50;4989548;28;20050;-88
2022/12/18 17:19:58;;;;;;;14.93;8.43;;;;;;;6.03;56.61;102743.28;5005990;28;20084;-88
2022/12/18 17:22:32;;;;;;;14.07;8.05;;;;;;;5.97;55.19;102740.97;4988435;28;20034;-87
2022/12/18 17:25:20;;;;;;;21.30;9.07;;;;;;;6.18;55.37;102767.47;5014857;28;20045;-88
2022/12/18 17:27:52;;;;;;;16.17;8.00;;;;;;;5.98;54.50;102764.03;4996203;28;20061;-89
2022/12/18 17:30:26;;;;;;;44.05;14.30;;;;;;;5.77;55.31;102743.75;4982036;28;20042;-89
2022/12/18 17:33:16;;;;;;;18.73;8.20;;;;;;;5.71;56.02;102744.91;4988823;28;20058;-90
2022/12/18 17:44:04;;;;;;;15.43;8.17;;;;;;;5.67;56.38;102778.06;5004234;26;20034;-89
2022/12/18 17:47:17;;;;;;;15.13;7.65;;;;;;;5.81;56.45;102778.22;4948849;28;20112;-89
2022/12/18 17:50:08;;;;;;;15.40;8.23;;;;;;;5.62;56.91;102751.63;4995509;28;20066;-87
2022/12/18 17:52:38;;;;;;;18.45;8.95;;;;;;;5.58;58.00;102766.03;4961117;29;20042;-87
2022/12/18 17:55:25;;;;;;;15.00;8.25;;;;;;;5.57;58.52;102774.13;4976948;28;20047;-87
2022/12/18 17:58:14;;;;;;;17.17;7.95;;;;;;;5.68;57.10;102793.97;4974961;28;20030;-88
2022/12/18 18:01:01;;;;;;;17.05;7.85;;;;;;;5.45;58.34;102781.78;4975051;28;20070;-87
2022/12/18 18:03:54;;;;;;;16.00;8.07;;;;;;;5.38;58.55;102771.50;4962915;28;20055;-89
2022/12/18 18:06:51;;;;;;;16.98;8.38;;;;;;;5.36;58.39;102770.72;4993757;28;20080;-87
2022/12/18 18:09:45;;;;;;;14.98;8.05;;;;;;;5.29;57.75;102762.13;4991140;28;20070;-88
2022/12/18 18:15:51;;;;;;;17.23;8.35;;;;;;;5.47;56.87;102789.72;4979882;28;20050;-91
2022/12/18 18:18:38;;;;;;;17.13;8.50;;;;;;;5.45;56.80;102783.59;4987094;28;20058;-88
2022/12/18 18:46:53;;;;;;;16.30;7.95;;;;;;;5.08;56.38;102772.94;4973978;28;20512;-88
2022/12/18 18:49:26;;;;;;;15.75;8.23;;;;;;;5.10;57.53;102796.84;4964533;28;20058;-87
2022/12/18 18:52:06;;;;;;;;;;;;;;;5.41;57.44;102833.59;4989238;28;20046;-88
2022/12/18 18:54:41;;;;;;;16.45;8.80;;;;;;;5.34;58.87;102836.59;5004714;28;19924;-88
2022/12/18 18:57:13;;;;;;;18.17;9.05;;;;;;;5.27;59.16;102815.56;4965357;28;20058;-86
2022/12/18 19:00:00;;;;;;;24.17;9.10;;;;;;;5.38;59.23;102849.72;4966806;28;20105;-88
2022/12/18 19:02:51;;;;;;;21.48;10.20;;;;;;;5.31;59.35;102826.09;4942856;28;20055;-87
2022/12/18 19:05:21;;;;;;;33.50;10.77;;;;;;;5.08;60.26;102836.06;4958257;28;20062;-86
2022/12/18 19:07:51;;;;;;;22.98;10.15;;;;;;;5.07;60.60;102832.50;4973521;28;20081;-89
2022/12/18 19:10:23;;;;;;;20.73;10.02;;;;;;;5.18;60.46;102856.00;5004344;28;20023;-87
2022/12/18 19:13:21;;;;;;;20.80;9.80;;;;;;;5.16;60.73;102857.88;4952982;29;20054;-89
2022/12/18 19:16:02;;;;;;;22.35;9.98;;;;;;;5.14;61.30;102872.22;4975035;28;20030;-89
2022/12/18 19:18:32;;;;;;;23.60;10.23;;;;;;;4.99;60.43;102847.16;4977915;28;20051;-87
2022/12/18 19:21:07;;;;;;;20.15;9.77;;;;;;;4.73;60.31;102819.91;4963516;28;20046;-86
2022/12/18 19:23:36;;;;;;;21.30;10.15;;;;;;;4.77;60.24;102826.78;4947924;28;20042;-86
2022/12/18 19:26:07;;;;;;;18.80;9.93;;;;;;;4.81;59.93;102827.53;4952818;28;20065;-88
2022/12/18 19:28:37;;;;;;;20.27;10.50;;;;;;;4.57;60.36;102824.19;4947093;29;20384;-89
2022/12/18 19:31:24;;;;;;;21.40;9.80;;;;;;;4.73;60.67;102846.56;4961307;28;20055;-87
2022/12/18 19:33:57;;;;;;;18.98;9.68;;;;;;;4.73;60.59;102848.31;4969153;28;20043;-88
2022/12/18 19:36:26;;;;;;;21.17;10.13;;;;;;;4.85;59.78;102848.66;4916947;28;20492;-87
2022/12/18 19:39:16;;;;;;;19.52;9.38;;;;;;;4.90;59.79;102867.09;4935625;28;20154;-87
2022/12/18 19:42:04;;;;;;;19.35;9.52;;;;;;;4.59;59.56;102819.66;4992369;28;20035;-87
2022/12/18 19:44:33;;;;;;;17.80;9.05;;;;;;;4.69;58.10;102836.09;4989216;28;20042;-86
2022/12/18 19:47:02;;;;;;;17.90;8.80;;;;;;;4.59;59.19;102833.00;4994046;28;20158;-89
2022/12/18 19:49:37;;;;;;;18.85;8.90;;;;;;;4.76;58.25;102865.06;4978711;28;20057;-88
2022/12/18 19:52:04;;;;;;;21.40;9.80;;;;;;;4.80;58.95;102873.75;4964320;28;20467;-87
2022/12/18 19:54:31;;;;;;;19.08;9.30;;;;;;;4.78;58.00;102870.31;4999037;28;20101;-87
2022/12/18 19:56:58;;;;;;;17.08;8.63;;;;;;;4.49;57.79;102831.66;4975931;28;20062;-87
2022/12/18 19:59:48;;;;;;;17.00;8.52;;;;;;;4.52;57.78;102843.06;4974284;28;20046;-87
2022/12/18 20:02:23;;;;;;;18.92;9.43;;;;;;;4.60;58.71;102840.91;4990080;28;20577;-89
2022/12/18 20:04:51;;;;;;;21.13;9.25;;;;;;;4.52;58.90;102835.06;4996344;28;20042;-86
2022/12/18 20:07:16;;;;;;;19.63;9.30;;;;;;;4.36;57.63;102812.69;5009839;28;20076;-86
2022/12/18 20:09:52;;;;;;;19.98;9.07;;;;;;;4.40;59.16;102870.22;5015313;28;20038;-87
2022/12/18 20:12:45;;;;;;;17.75;8.55;;;;;;;4.43;57.96;102856.78;5013834;28;20057;-86
2022/12/18 20:15:18;;;;;;;15.40;8.15;;;;;;;4.42;58.19;102850.59;5011919;28;20056;-88
2022/12/18 20:17:44;;;;;;;17.80;8.70;;;;;;;4.27;58.67;102840.59;4980392;28;20050;-88
2022/12/18 20:20:12;;;;;;;18.30;8.88;;;;;;;4.34;57.26;102844.72;4961502;28;20130;-88
2022/12/18 20:22:44;;;;;;;19.55;8.55;;;;;;;4.17;57.06;102831.28;4997537;28;20042;-86
2022/12/18 20:25:34;;;;;;;19.77;8.95;;;;;;;4.40;57.97;102880.84;4977600;28;20531;-87
2022/12/18 20:28:05;;;;;;;16.42;8.13;;;;;;;4.50;56.46;102887.53;5008378;28;20061;-86
2022/12/18 20:30:32;;;;;;;16.50;7.88;;;;;;;4.33;57.30;102877.63;5008211;28;20042;-88
2022/12/18 20:33:00;;;;;;;16.92;8.23;;;;;;;4.57;56.62;102893.47;4962987;28;20395;-87
2022/12/18 20:35:49;;;;;;;21.70;9.02;;;;;;;4.54;57.28;102904.25;4980980;28;20053;-90
2022/12/18 20:38:59;;;;;;;19.70;9.10;;;;;;;4.46;57.29;102890.41;4990797;28;20062;-91
2022/12/18 20:57:24;;;;;;;20.08;9.77;;;;;;;4.37;57.12;102903.16;5634253;22;16764089;-87
2022/12/18 20:59:50;;;;;;;20.30;9.40;;;;;;;4.34;57.12;102907.78;6332527;22;20045;-89
2022/12/18 21:02:27;;;;;;;23.58;9.68;;;;;;;4.30;57.62;102917.69;6306521;22;20005;-87
2022/12/18 21:05:07;;;;;;;17.85;9.35;;;;;;;4.33;57.39;102933.56;6309034;22;20003;-91
2022/12/18 21:07:54;;;;;;;18.92;9.02;;;;;;;4.09;57.15;102923.91;6335729;22;20006;-89
2022/12/18 21:10:31;;;;;;;20.13;9.15;;;;;;;4.19;56.62;102923.47;6335911;22;20015;-87
2022/12/18 21:13:01;;;;;;;17.67;8.98;;;;;;;4.07;56.95;102920.44;6338094;22;20003;-87
2022/12/18 21:15:29;;;;;;;20.25;9.38;;;;;;;3.88;57.15;102904.38;6333776;22;20006;-91
2022/12/18 21:18:00;;;;;;;20.20;9.10;;;;;;;4.05;57.25;102938.28;6342355;22;20011;-90
2022/12/18 21:34:01;;;;;;;18.07;8.97;;;;;;;4.31;57.25;102971.81;6366227;22;20026;-89
2022/12/18 21:36:51;;;;;;;;;;;;;;;4.05;57.46;102962.22;6326630;22;20039;-86
2022/12/18 21:39:58;;;;;;;21.50;9.20;;;;;;;4.22;57.25;102967.75;6334389;22;19922;-89
2022/12/18 21:45:08;;;;;;;19.75;8.85;;;;;;;4.25;56.38;102951.63;6315473;22;20084;-87
2022/12/18 21:47:57;;;;;;;20.52;8.93;;;;;;;4.45;56.14;102977.44;6308692;22;20015;-87
2022/12/18 21:50:46;;;;;;;19.05;8.98;;;;;;;4.35;56.04;102958.28;6325478;22;20011;-87
2022/12/18 21:53:15;;;;;;;21.20;9.82;;;;;;;3.90;56.78;102940.63;6326149;22;20075;-87
2022/12/18 21:55:49;;;;;;;21.52;9.75;;;;;;;3.85;57.02;102929.31;6296371;22;20498;-87
2022/12/18 21:58:19;;;;;;;19.92;9.35;;;;;;;4.18;56.91;102960.81;6290138;22;20022;-87
2022/12/18 22:00:47;;;;;;;20.35;10.02;;;;;;;4.08;57.23;102954.13;6296284;22;20041;-88
2022/12/18 22:03:26;;;;;;;19.23;9.32;;;;;;;4.18;57.15;102971.47;6294312;22;20052;-88
2022/12/18 22:06:11;;;;;;;23.80;9.93;;;;;;;4.04;57.30;102947.19;6320962;22;20007;-88
2022/12/18 22:09:42;;;;;;;17.98;8.88;;;;;;;4.12;56.98;102959.28;6321155;22;20452;-89
2022/12/18 22:12:43;;;;;;;20.98;9.00;;;;;;;3.98;57.06;102927.00;6329532;22;20015;-88
2022/12/18 22:15:32;;;;;;;21.63;9.38;;;;;;;3.83;57.87;102939.16;6329469;22;20011;-89
2022/12/18 22:19:11;;;;;;;21.20;9.75;;;;;;;3.78;58.31;102935.81;6324587;22;20004;-89
2022/12/18 22:22:04;;;;;;;22.15;9.63;;;;;;;4.00;57.90;102971.28;6330674;22;20022;-88
2022/12/18 22:25:14;;;;;;;22.02;10.00;;;;;;;3.73;58.88;102943.13;6327710;22;20061;-88
2022/12/18 22:31:19;;;;;;;21.30;9.15;;;;;;;3.65;58.66;102955.84;6332761;22;20021;-88
2022/12/18 22:34:31;;;;;;;22.50;9.40;;;;;;;3.56;59.43;102962.41;6332222;22;20029;-87
2022/12/18 22:37:12;;;;;;;21.05;9.55;;;;;;;3.48;60.06;102975.97;6328430;22;20020;-87
2022/12/18 22:40:32;;;;;;;19.67;9.10;;;;;;;3.61;59.98;102986.16;6304508;22;20027;-88
2022/12/18 22:43:21;;;;;;;20.23;9.23;;;;;;;3.49;59.84;102966.19;6326830;22;20007;-88
2022/12/18 22:46:30;;;;;;;21.83;9.55;;;;;;;3.33;60.29;102968.59;6331525;22;20005;-88
2022/12/18 22:48:58;;;;;;;23.88;9.88;;;;;;;3.43;60.08;102977.09;6331522;22;20022;-88
2022/12/18 22:52:15;;;;;;;21.55;8.95;;;;;;;3.61;59.98;103002.13;6327006;22;20033;-88
2022/12/18 22:55:09;;;;;;;23.02;9.45;;;;;;;3.45;59.96;102970.78;6325417;22;20037;-88
2022/12/18 22:57:37;;;;;;;23.52;10.40;;;;;;;3.31;60.14;102971.28;6327262;22;20063;-88
2022/12/18 23:00:31;;;;;;;23.10;10.48;;;;;;;3.31;61.11;103015.63;6278832;22;20022;-88
2022/12/18 23:03:03;;;;;;;24.33;10.00;;;;;;;3.00;60.99;102971.56;6269683;22;20019;-89
2022/12/18 23:06:03;;;;;;;21.20;9.38;;;;;;;3.23;60.33;102985.78;6326284;22;20007;-87
2022/12/18 23:09:08;;;;;;;21.73;9.73;;;;;;;2.95;61.39;102993.00;6326538;22;20445;-88
2022/12/18 23:11:58;;;;;;;25.25;10.27;;;;;;;3.00;61.13;103000.78;6325716;22;20021;-88
2022/12/18 23:14:49;;;;;;;24.30;10.52;;;;;;;2.78;61.70;102984.72;6301891;22;20098;-87
2022/12/18 23:17:34;;;;;;;24.42;10.40;;;;;;;2.99;61.90;102998.19;6309931;22;20007;-88
2022/12/18 23:20:12;;;;;;;27.98;10.43;;;;;;;2.84;62.22;102983.66;6327216;22;20004;-87
2022/12/18 23:25:40;;;;;;;24.00;10.45;;;;;;;3.06;61.66;103000.56;6389120;22;20010;-87
2022/12/18 23:28:47;;;;;;;23.08;9.52;;;;;;;2.94;61.59;103006.31;6366906;22;19998;-87
2022/12/18 23:31:26;;;;;;;21.27;9.70;;;;;;;2.61;61.95;102984.47;6356155;22;20061;-89
2022/12/18 23:34:31;;;;;;;20.77;9.10;;;;;;;2.64;62.35;102993.16;6370055;22;19997;-87
2022/12/18 23:36:59;;;;;;;24.05;9.90;;;;;;;2.50;62.71;103000.75;6361569;22;20078;-88